createdAt,value
2022-12-20T00:02:26.049Z,20.30
2022-12-20T00:04:52.539Z,17.92
2022-12-20T00:07:18.914Z,20.10
2022-12-20T00:09:45.316Z,20.17
2022-12-20T00:12:11.761Z,37.22
2022-12-20T00:14:38.184Z,34.97
2022-12-20T00:17:04.645Z,25.33
2022-12-20T00:19:31.110Z,22.83
2022-12-20T00:21:57.609Z,23.90
2022-12-20T00:24:26.336Z,18.90
2022-12-20T00:26:53.131Z,19.20
2022-12-20T00:29:19.539Z,23.10
2022-12-20T00:31:46.083Z,16.33
2022-12-20T00:34:12.554Z,16.27
2022-12-20T00:36:40.089Z,19.92
2022-12-20T00:39:06.521Z,24.20
2022-12-20T00:41:34.497Z,23.38
2022-12-20T00:44:02.090Z,21.00
2022-12-20T00:46:29.020Z,22.58
2022-12-20T00:48:56.824Z,25.10
2022-12-20T00:51:27.004Z,22.33
2022-12-20T00:53:54.387Z,21.30
2022-12-20T00:56:21.773Z,17.50
2022-12-20T00:58:48.359Z,19.08
2022-12-20T01:01:30.430Z,22.80
2022-12-20T01:03:57.176Z,17.52
2022-12-20T01:06:25.107Z,20.08
2022-12-20T01:08:52.745Z,24.58
2022-12-20T01:11:24.672Z,19.05
2022-12-20T01:13:55.940Z,23.25
2022-12-20T01:16:37.916Z,21.80
2022-12-20T01:19:05.683Z,19.42
2022-12-20T01:21:32.261Z,21.45
2022-12-20T01:23:58.779Z,17.05
2022-12-20T01:26:28.427Z,19.42
2022-12-20T01:28:59.926Z,16.10
2022-12-20T01:31:28.253Z,14.13
2022-12-20T01:33:54.941Z,17.50
2022-12-20T01:36:27.187Z,16.35
2022-12-20T01:39:06.086Z,15.25
2022-12-20T01:41:33.386Z,17.92
2022-12-20T01:44:02.374Z,16.98
2022-12-20T01:46:31.581Z,15.35
2022-12-20T01:49:13.336Z,23.35
2022-12-20T01:51:44.539Z,16.73
2022-12-20T01:54:25.059Z,16.88
2022-12-20T01:56:58.503Z,19.85
2022-12-20T01:59:26.625Z,19.80
2022-12-20T02:01:53.174Z,20.08
2022-12-20T02:04:19.618Z,18.42
2022-12-20T02:06:46.008Z,20.42
2022-12-20T02:09:12.470Z,23.48
2022-12-20T02:11:58.109Z,23.52
2022-12-20T02:14:36.602Z,22.15
2022-12-20T02:17:21.769Z,25.23
2022-12-20T02:20:00.276Z,21.85
2022-12-20T02:22:57.156Z,22.50
2022-12-20T02:25:55.826Z,23.00
2022-12-20T02:28:45.981Z,23.58
2022-12-20T02:31:17.326Z,22.83
2022-12-20T02:33:47.981Z,22.02
2022-12-20T02:36:18.341Z,19.85
2022-12-20T02:38:45.176Z,25.00
2022-12-20T02:41:26.592Z,21.65
2022-12-20T02:44:18.330Z,19.13
2022-12-20T02:46:45.724Z,20.80
2022-12-20T02:49:16.600Z,26.55
2022-12-20T02:51:45.956Z,23.00
2022-12-20T02:54:13.345Z,22.58
2022-12-20T02:56:47.379Z,21.45
2022-12-20T02:59:16.865Z,19.08
2022-12-20T03:02:03.138Z,23.58
2022-12-20T03:04:32.257Z,24.17
2022-12-20T03:07:12.901Z,22.83
2022-12-20T03:09:41.788Z,20.08
2022-12-20T03:12:11.639Z,19.90
2022-12-20T03:14:39.091Z,18.73
2022-12-20T03:17:06.633Z,21.70
2022-12-20T03:19:33.297Z,16.48
2022-12-20T03:21:59.861Z,18.25
2022-12-20T03:24:27.113Z,15.63
2022-12-20T03:26:53.503Z,16.27
2022-12-20T03:29:19.947Z,16.05
2022-12-20T03:31:46.632Z,16.38
2022-12-20T03:34:13.004Z,16.80
2022-12-20T03:36:39.399Z,13.82
2022-12-20T03:39:05.932Z,14.77
2022-12-20T03:41:32.275Z,17.40
2022-12-20T03:43:58.845Z,24.70
2022-12-20T03:46:25.768Z,17.50
2022-12-20T03:48:52.222Z,18.38
2022-12-20T03:51:18.574Z,23.05
2022-12-20T03:53:44.984Z,18.73
2022-12-20T03:56:11.432Z,16.48
2022-12-20T03:58:37.776Z,17.40
2022-12-20T04:01:19.259Z,16.02
2022-12-20T04:03:45.752Z,19.35
2022-12-20T04:06:12.189Z,19.63
2022-12-20T04:08:38.683Z,22.67
2022-12-20T04:11:17.141Z,18.55
2022-12-20T04:13:44.500Z,18.60
2022-12-20T04:16:12.108Z,19.27
2022-12-20T04:18:38.617Z,19.65
2022-12-20T04:21:07.073Z,18.88
2022-12-20T04:23:35.338Z,14.85
2022-12-20T04:26:03.092Z,14.70
2022-12-20T04:28:29.765Z,17.13
2022-12-20T04:30:56.437Z,18.38
2022-12-20T04:33:23.599Z,20.25
2022-12-20T04:35:50.176Z,17.27
2022-12-20T04:38:16.933Z,20.95
2022-12-20T04:40:43.541Z,19.10
2022-12-20T04:43:10.011Z,18.13
2022-12-20T04:45:36.489Z,19.08
2022-12-20T04:48:21.381Z,16.67
2022-12-20T04:50:50.125Z,17.77
2022-12-20T04:53:35.602Z,16.42
2022-12-20T04:58:29.447Z,16.25
2022-12-20T05:00:55.895Z,17.05
2022-12-20T05:03:23.785Z,20.17
2022-12-20T05:05:50.215Z,20.92
2022-12-20T05:08:16.631Z,19.02
2022-12-20T05:10:43.127Z,18.75
2022-12-20T05:13:09.687Z,18.80
2022-12-20T05:15:37.067Z,22.58
2022-12-20T05:18:04.328Z,19.35
2022-12-20T05:20:31.040Z,22.08
2022-12-20T05:23:16.936Z,24.42
2022-12-20T05:26:06.357Z,24.85
2022-12-20T05:28:33.191Z,19.95
2022-12-20T05:30:59.947Z,19.38
2022-12-20T05:33:33.655Z,21.75
2022-12-20T05:36:00.625Z,16.35
2022-12-20T05:38:27.286Z,18.15
2022-12-20T05:40:53.676Z,24.05
2022-12-20T05:43:20.806Z,20.42
2022-12-20T05:45:52.331Z,16.85
2022-12-20T05:48:20.414Z,17.90
2022-12-20T05:50:47.559Z,16.05
2022-12-20T05:53:15.242Z,20.45
2022-12-20T05:55:51.597Z,18.23
2022-12-20T05:58:18.001Z,15.60
2022-12-20T06:00:45.031Z,14.50
2022-12-20T06:03:12.030Z,14.30
2022-12-20T06:05:39.666Z,21.33
2022-12-20T06:08:07.269Z,18.58
2022-12-20T06:10:34.695Z,21.88
2022-12-20T06:13:02.272Z,21.15
2022-12-20T06:15:29.131Z,18.27
2022-12-20T06:17:55.931Z,23.02
2022-12-20T06:20:22.411Z,19.90
2022-12-20T06:22:48.950Z,16.65
2022-12-20T06:25:15.681Z,24.67
2022-12-20T06:27:42.988Z,20.52
2022-12-20T06:30:10.508Z,19.63
2022-12-20T06:32:36.859Z,18.42
2022-12-20T06:35:03.439Z,22.23
2022-12-20T06:37:30.059Z,19.17
2022-12-20T06:39:56.431Z,24.38
2022-12-20T06:42:22.861Z,23.30
2022-12-20T06:44:49.581Z,19.83
2022-12-20T06:47:15.955Z,19.48
2022-12-20T06:49:42.334Z,22.25
2022-12-20T06:52:08.734Z,17.67
2022-12-20T06:54:35.120Z,24.15
2022-12-20T06:57:01.552Z,21.33
2022-12-20T06:59:27.958Z,18.73
2022-12-20T07:01:54.558Z,21.95
2022-12-20T07:04:21.487Z,20.63
2022-12-20T07:06:47.914Z,23.52
2022-12-20T07:09:14.301Z,19.63
2022-12-20T07:11:40.695Z,21.58
2022-12-20T07:14:07.106Z,19.27
2022-12-20T07:16:33.534Z,15.85
2022-12-20T07:18:59.974Z,24.13
2022-12-20T07:21:26.429Z,23.25
2022-12-20T07:23:53.397Z,15.85
2022-12-20T07:26:19.977Z,17.77
2022-12-20T07:28:46.416Z,20.10
2022-12-20T07:31:12.829Z,20.48
2022-12-20T07:33:39.706Z,20.55
2022-12-20T07:36:09.884Z,18.02
2022-12-20T07:38:36.981Z,18.13
2022-12-20T07:43:37.414Z,16.35
2022-12-20T07:46:05.124Z,15.63
2022-12-20T07:48:31.748Z,18.13
2022-12-20T07:51:03.100Z,15.90
2022-12-20T07:53:31.905Z,19.30
2022-12-20T07:56:00.457Z,20.17
2022-12-20T07:58:28.925Z,17.08
2022-12-20T08:00:56.390Z,14.57
2022-12-20T08:03:37.086Z,17.13
2022-12-20T08:06:07.236Z,19.95
2022-12-20T08:08:36.529Z,16.80
2022-12-20T08:11:04.814Z,18.73
2022-12-20T08:13:32.455Z,17.63
2022-12-20T08:15:58.883Z,19.98
2022-12-20T08:18:25.717Z,20.88
2022-12-20T08:20:52.098Z,20.00
2022-12-20T08:23:19.420Z,20.10
2022-12-20T08:25:45.837Z,18.65
2022-12-20T08:28:12.196Z,18.45
2022-12-20T08:30:38.629Z,18.40
2022-12-20T08:33:05.622Z,15.98
2022-12-20T08:35:32.036Z,21.30
2022-12-20T08:37:58.393Z,19.17
2022-12-20T08:40:24.812Z,17.65
2022-12-20T08:42:51.514Z,16.15
2022-12-20T08:45:19.253Z,15.65
2022-12-20T08:47:45.666Z,16.88
2022-12-20T08:50:13.611Z,14.70
2022-12-20T08:52:40.300Z,19.65
2022-12-20T08:55:06.972Z,20.17
2022-12-20T08:57:33.443Z,15.88
2022-12-20T08:59:59.906Z,17.60
2022-12-20T09:02:26.536Z,16.08
2022-12-20T09:04:53.115Z,16.95
2022-12-20T09:07:19.463Z,14.10
2022-12-20T09:09:47.492Z,12.10
2022-12-20T09:12:13.889Z,12.10
2022-12-20T09:14:40.275Z,11.45
2022-12-20T09:17:06.650Z,11.00
2022-12-20T09:19:33.052Z,12.88
2022-12-20T09:21:59.422Z,14.18
2022-12-20T09:24:25.798Z,12.48
2022-12-20T09:26:52.375Z,12.40
2022-12-20T09:29:26.924Z,12.95
2022-12-20T09:31:53.640Z,15.10
2022-12-20T09:34:20.186Z,15.15
2022-12-20T09:36:46.589Z,16.00
2022-12-20T09:39:12.964Z,18.08
2022-12-20T09:41:44.512Z,14.77
2022-12-20T09:44:34.118Z,14.70
2022-12-20T09:47:30.961Z,15.45
2022-12-20T09:49:57.589Z,19.60
2022-12-20T09:52:30.583Z,17.33
2022-12-20T09:55:30.559Z,19.67
2022-12-20T09:58:30.817Z,17.75
2022-12-20T10:00:58.199Z,18.75
2022-12-20T10:03:31.827Z,20.77
2022-12-20T10:06:05.270Z,19.35
2022-12-20T10:08:43.387Z,18.38
2022-12-20T10:11:26.045Z,18.75
2022-12-20T10:14:18.071Z,17.83
2022-12-20T10:16:54.399Z,20.95
2022-12-20T10:19:43.529Z,18.10
2022-12-20T10:22:19.732Z,16.17
2022-12-20T10:24:56.275Z,19.83
2022-12-20T10:27:22.914Z,17.10
2022-12-20T10:29:51.597Z,15.25
2022-12-20T10:32:23.663Z,17.05
2022-12-20T10:34:59.800Z,15.68
2022-12-20T10:37:26.292Z,17.52
2022-12-20T10:39:52.934Z,16.63
2022-12-20T10:42:34.282Z,13.32
2022-12-20T10:45:00.844Z,15.50
2022-12-20T10:47:42.179Z,16.70
2022-12-20T10:50:21.016Z,12.48
2022-12-20T10:53:19.256Z,14.48
2022-12-20T10:55:45.777Z,13.48
2022-12-20T10:58:31.919Z,14.80
2022-12-20T11:01:12.847Z,11.50
2022-12-20T11:04:18.025Z,13.38
2022-12-20T11:06:45.637Z,11.43
2022-12-20T11:09:35.081Z,15.43
2022-12-20T11:12:16.435Z,14.02
2022-12-20T11:14:45.411Z,12.32
2022-12-20T11:17:14.818Z,11.40
2022-12-20T11:20:12.500Z,14.93
2022-12-20T11:23:17.327Z,9.90
2022-12-20T11:26:02.077Z,12.20
2022-12-20T11:28:34.280Z,9.15
2022-12-20T11:31:54.522Z,13.50
2022-12-20T11:35:08.935Z,9.40
2022-12-20T11:37:56.042Z,10.48
2022-12-20T11:40:36.935Z,10.52
2022-12-20T11:43:30.696Z,8.07
2022-12-20T11:46:30.783Z,8.73
2022-12-20T11:49:20.821Z,7.93
2022-12-20T11:51:50.906Z,9.05
2022-12-20T11:54:29.256Z,6.03
2022-12-20T11:57:03.611Z,7.75
2022-12-20T11:59:42.669Z,6.70
2022-12-20T12:02:43.967Z,8.02
2022-12-20T12:05:39.870Z,6.43
2022-12-20T12:08:18.196Z,9.02
2022-12-20T12:10:56.298Z,4.70
2022-12-20T12:13:30.118Z,7.93
2022-12-20T12:16:27.790Z,5.30
2022-12-20T12:18:54.605Z,5.97
2022-12-20T12:21:23.299Z,6.55
2022-12-20T12:24:27.551Z,6.32
2022-12-20T12:26:54.173Z,6.00
2022-12-20T12:29:22.112Z,9.90
2022-12-20T12:31:49.021Z,6.53
2022-12-20T12:34:50.172Z,5.47
2022-12-20T12:37:41.267Z,5.43
2022-12-20T12:40:07.692Z,5.00
2022-12-20T12:42:55.677Z,7.10
2022-12-20T12:45:37.556Z,5.15
2022-12-20T12:48:24.332Z,4.22
2022-12-20T12:50:55.297Z,4.13
2022-12-20T12:53:38.026Z,6.93
2022-12-20T12:56:43.073Z,5.55
2022-12-20T12:59:22.885Z,7.65
2022-12-20T13:02:16.192Z,6.30
2022-12-20T13:05:01.673Z,6.45
2022-12-20T13:07:35.110Z,6.20
2022-12-20T13:10:25.588Z,7.75
2022-12-20T13:12:52.419Z,4.60
2022-12-20T13:15:21.611Z,5.07
2022-12-20T13:17:57.088Z,4.60
2022-12-20T13:20:32.047Z,5.60
2022-12-20T13:23:11.427Z,6.80
2022-12-20T13:25:43.787Z,4.43
2022-12-20T13:28:19.501Z,5.13
2022-12-20T13:30:48.132Z,5.63
2022-12-20T13:33:38.554Z,5.82
2022-12-20T13:36:10.987Z,3.83
2022-12-20T13:38:53.911Z,10.88
2022-12-20T13:41:45.552Z,4.35
2022-12-20T13:44:15.105Z,4.40
2022-12-20T13:47:03.459Z,6.05
2022-12-20T13:49:36.319Z,5.45
2022-12-20T13:52:11.667Z,4.82
2022-12-20T13:54:44.456Z,6.75
2022-12-20T13:57:30.844Z,9.45
2022-12-20T14:00:06.416Z,6.47
2022-12-20T14:02:40.205Z,5.85
2022-12-20T14:05:17.131Z,8.82
2022-12-20T14:07:46.688Z,6.47
2022-12-20T14:10:18.772Z,8.00
2022-12-20T14:12:46.403Z,4.90
2022-12-20T14:15:34.155Z,6.07
2022-12-20T14:18:27.620Z,7.55
2022-12-20T14:20:59.203Z,6.43
2022-12-20T14:23:40.503Z,10.73
2022-12-20T14:26:12.926Z,6.55
2022-12-20T14:28:44.530Z,5.72
2022-12-20T14:31:34.799Z,8.85
2022-12-20T14:34:16.580Z,7.80
2022-12-20T14:36:48.534Z,7.63
2022-12-20T14:39:22.713Z,14.40
2022-12-20T14:41:56.540Z,9.40
2022-12-20T14:44:24.046Z,5.90
2022-12-20T14:47:10.075Z,7.65
2022-12-20T14:49:38.508Z,5.90
2022-12-20T14:52:20.316Z,5.97
2022-12-20T14:55:11.150Z,7.72
2022-12-20T14:57:40.051Z,4.75
2022-12-20T15:00:23.244Z,6.40
2022-12-20T15:02:56.013Z,4.65
2022-12-20T15:05:34.929Z,5.13
2022-12-20T15:11:37.811Z,7.10
2022-12-20T15:14:43.454Z,7.35
2022-12-20T15:17:17.466Z,6.23
2022-12-20T15:20:21.941Z,10.63
2022-12-20T15:23:03.344Z,6.88
2022-12-20T15:25:56.995Z,10.13
2022-12-20T15:28:33.132Z,8.27
2022-12-20T15:31:11.842Z,8.40
2022-12-20T15:36:46.055Z,8.05
2022-12-20T15:39:14.182Z,6.53
2022-12-20T15:42:06.483Z,8.00
2022-12-20T15:44:58.254Z,8.77
2022-12-20T15:47:25.571Z,9.40
2022-12-20T15:50:10.758Z,7.82
2022-12-20T15:52:43.780Z,7.25
2022-12-20T15:55:17.946Z,8.38
2022-12-20T15:57:49.448Z,9.30
2022-12-20T16:00:34.345Z,6.85
2022-12-20T16:03:08.566Z,10.85
2022-12-20T16:06:03.957Z,6.28
2022-12-20T16:08:33.585Z,9.23
2022-12-20T16:13:55.070Z,6.70
2022-12-20T16:16:27.143Z,6.15
2022-12-20T16:18:53.837Z,9.90
2022-12-20T16:21:25.742Z,8.75
2022-12-20T16:23:53.376Z,8.05
2022-12-20T16:26:22.907Z,8.55
2022-12-20T16:28:51.290Z,6.93
2022-12-20T16:31:39.544Z,6.88
2022-12-20T16:34:12.291Z,8.38
2022-12-20T16:36:38.671Z,16.70
2022-12-20T16:39:05.171Z,14.07
2022-12-20T16:41:33.778Z,12.95
2022-12-20T16:44:01.998Z,14.05
2022-12-20T16:46:30.217Z,14.55
2022-12-20T16:48:58.157Z,20.77
2022-12-20T16:51:25.971Z,13.15
2022-12-20T16:56:44.287Z,10.25
2022-12-20T16:59:20.754Z,9.80
2022-12-20T17:01:51.064Z,9.70
2022-12-20T17:04:18.952Z,10.07
2022-12-20T17:06:46.617Z,13.70
2022-12-20T17:09:13.432Z,12.27
2022-12-20T17:11:39.820Z,11.23
2022-12-20T17:14:12.356Z,8.82
2022-12-20T17:16:39.873Z,10.73
2022-12-20T17:19:06.485Z,10.18
2022-12-20T17:24:28.643Z,11.48
2022-12-20T17:26:55.324Z,10.40
2022-12-20T17:29:22.054Z,8.63
2022-12-20T17:31:49.862Z,6.47
2022-12-20T17:34:28.300Z,9.98
2022-12-20T17:37:16.559Z,8.45
2022-12-20T17:39:43.084Z,15.57
2022-12-20T17:42:12.877Z,9.13
2022-12-20T17:44:39.328Z,11.23
2022-12-20T17:47:06.408Z,11.40
2022-12-20T17:49:33.022Z,9.48
2022-12-20T17:51:59.377Z,8.93
2022-12-20T17:54:28.081Z,10.43
2022-12-20T17:56:57.366Z,10.68
2022-12-20T17:59:25.689Z,7.63
2022-12-20T18:01:52.357Z,8.57
2022-12-20T18:04:19.127Z,8.80
2022-12-20T18:06:48.890Z,10.43
2022-12-20T18:09:20.919Z,13.23
2022-12-20T18:11:48.285Z,16.45
2022-12-20T18:14:15.429Z,9.70
2022-12-20T18:16:42.191Z,10.50
2022-12-20T18:19:15.671Z,10.05
2022-12-20T18:21:42.307Z,10.90
2022-12-20T18:24:13.642Z,7.18
2022-12-20T18:26:40.763Z,9.05
2022-12-20T18:29:07.391Z,8.90
2022-12-20T18:31:34.827Z,12.70
2022-12-20T18:34:02.150Z,11.07
2022-12-20T18:36:32.247Z,17.30
2022-12-20T18:39:00.120Z,16.73
2022-12-20T18:41:29.793Z,16.65
2022-12-20T18:44:05.471Z,17.73
2022-12-20T18:46:38.948Z,14.95
2022-12-20T18:49:05.722Z,11.35
2022-12-20T18:51:38.590Z,23.52
2022-12-20T18:54:07.486Z,14.57
2022-12-20T18:56:36.784Z,11.48
2022-12-20T18:59:10.689Z,8.02
2022-12-20T19:01:38.638Z,12.23
2022-12-20T19:04:08.262Z,9.93
2022-12-20T19:06:35.844Z,21.80
2022-12-20T19:09:05.184Z,20.85
2022-12-20T19:11:31.809Z,18.17
2022-12-20T19:13:58.264Z,11.35
2022-12-20T19:16:28.802Z,9.15
2022-12-20T19:18:55.203Z,12.50
2022-12-20T19:21:24.641Z,10.38
2022-12-20T19:23:54.644Z,8.93
2022-12-20T19:26:23.041Z,7.28
2022-12-20T19:28:49.812Z,7.82
2022-12-20T19:31:22.053Z,9.00
2022-12-20T19:33:50.688Z,9.00
2022-12-20T19:36:20.441Z,5.70
2022-12-20T19:38:50.191Z,5.20
2022-12-20T19:41:18.043Z,12.85
2022-12-20T19:43:44.825Z,21.02
2022-12-20T19:46:11.441Z,23.63
2022-12-20T19:48:38.056Z,13.00
2022-12-20T19:51:11.614Z,9.27
2022-12-20T19:53:40.073Z,5.65
2022-12-20T19:56:08.645Z,7.75
2022-12-20T19:58:36.372Z,7.32
2022-12-20T20:01:05.465Z,8.80
2022-12-20T20:03:32.606Z,5.68
2022-12-20T20:05:59.603Z,7.13
2022-12-20T20:08:26.061Z,9.73
2022-12-20T20:10:53.921Z,8.90
2022-12-20T20:13:20.454Z,5.07
2022-12-20T20:15:54.977Z,10.77
2022-12-20T20:18:23.832Z,6.25
2022-12-20T20:20:50.241Z,7.88
2022-12-20T20:23:16.821Z,9.60
2022-12-20T20:25:47.084Z,5.75
2022-12-20T20:28:13.871Z,6.88
2022-12-20T20:30:45.265Z,8.35
2022-12-20T20:33:12.364Z,6.15
2022-12-20T20:35:39.901Z,8.82
2022-12-20T20:38:07.812Z,6.15
2022-12-20T20:40:34.256Z,7.18
2022-12-20T20:43:01.961Z,5.82
2022-12-20T20:45:29.101Z,9.38
2022-12-20T20:47:57.380Z,8.95
2022-12-20T20:50:26.411Z,5.38
2022-12-20T20:52:52.871Z,6.43
2022-12-20T20:55:19.391Z,6.72
2022-12-20T20:57:45.874Z,7.53
2022-12-20T21:00:12.818Z,5.57
2022-12-20T21:02:39.562Z,7.88
2022-12-20T21:05:58.618Z,7.32
2022-12-20T21:07:53.671Z,7.80
2022-12-20T21:10:23.663Z,7.20
2022-12-20T21:12:50.523Z,7.55
2022-12-20T21:15:23.436Z,11.57
2022-12-20T21:17:50.592Z,10.57
2022-12-20T21:20:20.719Z,5.60
2022-12-20T21:22:50.383Z,7.60
2022-12-20T21:25:17.219Z,8.13
2022-12-20T21:27:43.621Z,7.25
2022-12-20T21:30:10.370Z,8.45
2022-12-20T21:32:36.842Z,5.35
2022-12-20T21:35:03.454Z,5.55
2022-12-20T21:37:30.523Z,6.90
2022-12-20T21:39:57.012Z,13.65
2022-12-20T21:42:23.497Z,5.78
2022-12-20T21:44:49.896Z,7.32
2022-12-20T21:47:16.352Z,8.18
2022-12-20T21:49:42.847Z,7.18
2022-12-20T21:52:09.334Z,7.30
2022-12-20T21:54:35.842Z,16.33
2022-12-20T21:57:02.257Z,11.48
2022-12-20T21:59:28.684Z,8.20
2022-12-20T22:01:55.226Z,7.22
2022-12-20T22:04:22.076Z,6.03
2022-12-20T22:06:48.563Z,8.80
2022-12-20T22:09:17.054Z,8.63
2022-12-20T22:11:43.504Z,6.95
2022-12-20T22:14:12.232Z,8.00
2022-12-20T22:16:38.614Z,9.07
2022-12-20T22:19:05.184Z,10.48
2022-12-20T22:21:33.227Z,7.72
2022-12-20T22:24:00.839Z,7.18
2022-12-20T22:26:29.811Z,9.02
2022-12-20T22:29:03.622Z,5.90
2022-12-20T22:31:30.874Z,7.60
2022-12-20T22:33:58.384Z,6.35
2022-12-20T22:36:26.004Z,7.72
2022-12-20T22:38:56.797Z,7.65
2022-12-20T22:41:26.506Z,6.70
2022-12-20T22:43:53.721Z,9.85
2022-12-20T22:46:20.636Z,6.90
2022-12-20T22:48:47.587Z,6.40
2022-12-20T22:51:19.848Z,6.55
2022-12-20T22:53:50.235Z,6.70
2022-12-20T22:56:18.336Z,6.72
2022-12-20T22:58:44.920Z,5.18
2022-12-20T23:01:13.531Z,5.72
2022-12-20T23:03:40.212Z,5.65
2022-12-20T23:06:08.808Z,6.07
2022-12-20T23:08:37.274Z,7.18
2022-12-20T23:11:23.409Z,5.25
2022-12-20T23:14:08.156Z,5.30
2022-12-20T23:16:37.195Z,6.22
2022-12-20T23:19:03.618Z,9.15
2022-12-20T23:21:48.756Z,6.47
2022-12-20T23:24:15.807Z,4.85
2022-12-20T23:26:43.380Z,7.28
2022-12-20T23:29:11.381Z,7.10
2022-12-20T23:31:37.997Z,6.00
2022-12-20T23:34:04.735Z,7.40
2022-12-20T23:36:33.262Z,5.28
2022-12-20T23:39:00.590Z,7.32
2022-12-20T23:41:27.090Z,7.13
2022-12-20T23:43:53.651Z,5.50
2022-12-20T23:46:21.721Z,6.40
2022-12-20T23:48:50.939Z,5.85
2022-12-20T23:51:18.118Z,6.20
2022-12-20T23:53:44.833Z,7.97
2022-12-20T23:56:14.889Z,13.00
2022-12-20T23:58:42.270Z,10.82
